createdAt,value
2023-03-23T15:58:54.522Z,14.20
2023-03-23T16:01:27.155Z,12.20
2023-03-23T16:04:03.000Z,13.40
2023-03-23T16:06:33.573Z,12.70
2023-03-23T16:09:02.028Z,15.60
2023-03-23T16:11:33.891Z,13.60
2023-03-23T16:14:02.360Z,15.60
2023-03-23T16:16:37.623Z,14.30
2023-03-23T16:19:06.655Z,22.10
2023-03-23T16:21:36.426Z,19.10
2023-03-23T16:24:04.424Z,17.80
2023-03-23T16:26:34.496Z,16.00
2023-03-23T16:29:14.540Z,17.20
2023-03-23T16:31:45.075Z,15.70
2023-03-23T16:34:13.138Z,13.70
2023-03-23T16:36:41.007Z,14.50
2023-03-23T16:39:12.031Z,13.90
2023-03-23T16:41:41.403Z,13.50
2023-03-23T16:44:14.626Z,36.70
2023-03-23T16:46:42.995Z,33.10
2023-03-23T16:49:11.125Z,18.30
2023-03-23T16:51:42.998Z,13.90
2023-03-23T16:54:11.076Z,11.70
2023-03-23T16:56:49.591Z,13.00
2023-03-23T16:59:18.023Z,12.90
2023-03-23T17:01:45.936Z,13.00
2023-03-23T17:04:15.810Z,12.00
2023-03-23T17:06:46.774Z,11.80
2023-03-23T17:09:14.805Z,11.90
2023-03-23T17:11:44.323Z,12.50
2023-03-23T17:14:12.981Z,15.30
2023-03-23T17:16:42.639Z,15.30
2023-03-23T17:19:16.759Z,12.20
2023-03-23T17:21:44.769Z,13.50
2023-03-23T17:24:21.030Z,14.90
2023-03-23T17:26:49.475Z,12.50
2023-03-23T17:29:17.714Z,12.50
2023-03-23T17:31:45.951Z,12.10
2023-03-23T17:34:13.882Z,12.30
2023-03-23T17:36:44.525Z,12.70
2023-03-23T17:39:12.669Z,13.10
2023-03-23T17:41:40.669Z,13.40
2023-03-23T17:44:09.903Z,14.20
2023-03-23T17:46:39.037Z,13.20
2023-03-23T17:49:07.070Z,15.10
2023-03-23T17:51:36.571Z,15.90
2023-03-23T17:54:04.425Z,15.90
2023-03-23T17:56:38.736Z,15.10
2023-03-23T17:59:07.929Z,17.80
2023-03-23T18:01:36.065Z,16.20
2023-03-23T18:04:06.293Z,16.60
2023-03-23T18:06:34.572Z,15.90
2023-03-23T18:09:03.724Z,19.00
2023-03-23T18:11:32.328Z,17.80
2023-03-23T18:14:00.606Z,17.50
2023-03-23T18:16:34.768Z,17.20
2023-03-23T18:19:04.195Z,19.30
2023-03-23T18:21:32.680Z,21.60
2023-03-23T18:24:01.725Z,20.00
2023-03-23T18:26:29.995Z,21.30
2023-03-23T18:28:57.795Z,20.50
2023-03-23T18:31:26.014Z,17.60
2023-03-23T18:33:55.400Z,17.60
2023-03-23T18:36:25.690Z,17.80
2023-03-23T18:38:56.130Z,18.00
2023-03-23T18:41:24.161Z,18.60
2023-03-23T18:43:52.222Z,17.70
2023-03-23T18:46:20.417Z,20.00
2023-03-23T18:48:48.513Z,19.20
2023-03-23T18:51:16.448Z,21.50
2023-03-23T18:53:44.576Z,20.00
2023-03-23T18:56:14.222Z,21.20
2023-03-23T18:58:42.095Z,19.70
2023-03-23T19:01:12.693Z,20.00
2023-03-23T19:03:41.216Z,19.80
2023-03-23T19:06:21.241Z,22.60
2023-03-23T19:08:49.587Z,22.20
2023-03-23T19:11:17.557Z,21.90
2023-03-23T19:13:58.182Z,20.60
2023-03-23T19:16:35.806Z,24.80
2023-03-23T19:19:08.325Z,22.80
2023-03-23T19:24:07.111Z,22.80
2023-03-23T19:26:38.300Z,21.80
2023-03-23T19:31:38.518Z,22.90
2023-03-23T19:34:06.726Z,22.80
2023-03-23T19:36:36.892Z,22.00
2023-03-23T19:39:06.553Z,21.60
2023-03-23T19:41:36.266Z,24.70
2023-03-23T19:44:08.517Z,23.20
2023-03-23T19:46:36.484Z,27.80
2023-03-23T19:49:04.443Z,25.70
2023-03-23T19:51:32.803Z,24.70
2023-03-23T19:54:01.046Z,23.20
2023-03-23T19:56:32.594Z,24.00
2023-03-23T19:59:01.534Z,23.60
2023-03-23T20:01:29.693Z,24.40
2023-03-23T20:04:06.965Z,25.90
2023-03-23T20:06:35.546Z,30.30
2023-03-23T20:09:06.297Z,25.70
2023-03-23T20:11:34.579Z,24.70
2023-03-23T20:14:04.332Z,26.50
2023-03-23T20:16:32.856Z,25.20
2023-03-23T20:19:00.836Z,26.30
2023-03-23T20:21:28.885Z,26.70
2023-03-23T20:23:57.803Z,26.80
2023-03-23T20:26:38.654Z,28.70
2023-03-23T20:29:08.027Z,27.00
2023-03-23T20:31:38.208Z,32.80
2023-03-23T20:34:11.079Z,29.90
2023-03-23T20:36:42.297Z,27.80
2023-03-23T20:39:21.078Z,29.30
2023-03-23T20:41:50.983Z,28.20
2023-03-23T20:44:19.937Z,27.90
2023-03-23T20:46:49.951Z,29.80
2023-03-23T20:49:18.542Z,30.00
2023-03-23T20:51:47.097Z,30.50
2023-03-23T20:54:15.818Z,29.00
2023-03-23T20:56:44.469Z,29.50
2023-03-23T20:59:16.020Z,29.30
2023-03-23T21:01:44.802Z,30.30
2023-03-23T21:04:17.321Z,29.30
2023-03-23T21:06:48.897Z,29.30
2023-03-23T21:09:17.525Z,30.90
2023-03-23T21:11:46.366Z,29.40
2023-03-23T21:14:16.427Z,29.40
2023-03-23T21:16:45.146Z,30.00
2023-03-23T21:19:21.388Z,29.20
2023-03-23T21:21:56.613Z,29.50
2023-03-23T21:24:28.859Z,29.60
2023-03-23T21:26:59.932Z,30.60
2023-03-23T21:29:28.836Z,30.90
2023-03-23T21:34:30.020Z,28.30
2023-03-23T21:36:58.233Z,29.50
2023-03-23T21:39:28.275Z,30.30
2023-03-23T21:41:56.449Z,30.70
2023-03-23T21:44:24.427Z,29.40
2023-03-23T21:46:52.619Z,31.10
2023-03-23T21:49:20.645Z,26.50
2023-03-23T21:51:49.654Z,27.50
2023-03-23T21:54:17.563Z,26.80
2023-03-23T21:56:46.112Z,27.20
2023-03-23T21:59:16.932Z,27.60
2023-03-23T22:01:45.071Z,24.50
2023-03-23T22:04:13.080Z,26.50
2023-03-23T22:06:44.665Z,26.80
2023-03-23T22:09:12.657Z,26.70
2023-03-23T22:11:40.909Z,23.50
2023-03-23T22:16:46.135Z,22.20
2023-03-23T22:19:14.339Z,21.80
2023-03-23T22:21:46.607Z,22.10
2023-03-23T22:24:16.016Z,21.80
2023-03-23T22:26:45.626Z,21.70
2023-03-23T22:29:16.898Z,19.60
2023-03-23T22:31:45.571Z,19.10
2023-03-23T22:34:13.527Z,19.00
2023-03-23T22:36:41.597Z,19.70
2023-03-23T22:39:09.883Z,20.50
2023-03-23T22:41:40.613Z,19.40
2023-03-23T22:44:12.910Z,21.10
2023-03-23T22:46:40.866Z,19.10
2023-03-23T22:49:11.403Z,19.40
2023-03-23T22:51:40.235Z,19.60
2023-03-23T22:56:41.030Z,19.80
2023-03-23T22:59:09.934Z,19.40
2023-03-23T23:01:38.071Z,19.00
2023-03-23T23:04:06.634Z,18.60
2023-03-23T23:06:34.612Z,18.50
2023-03-23T23:09:02.589Z,18.40
2023-03-23T23:11:31.970Z,19.30
2023-03-23T23:14:01.341Z,17.90
2023-03-23T23:16:30.274Z,18.70
2023-03-23T23:18:58.439Z,19.50
2023-03-23T23:21:28.971Z,17.80
2023-03-23T23:23:57.189Z,19.40
2023-03-23T23:26:25.271Z,18.90
2023-03-23T23:28:54.067Z,19.60
2023-03-23T23:31:31.432Z,18.70
2023-03-23T23:34:00.857Z,18.40
2023-03-23T23:36:30.108Z,19.80
2023-03-23T23:38:59.804Z,19.10
2023-03-23T23:41:34.057Z,18.10
2023-03-23T23:44:02.498Z,17.90
2023-03-23T23:46:31.545Z,17.30
2023-03-23T23:48:59.828Z,18.90
2023-03-23T23:51:28.818Z,18.90
2023-03-23T23:53:59.127Z,19.60
2023-03-23T23:56:28.071Z,18.60
2023-03-23T23:58:56.627Z,16.80
